createdAt,value
2023-09-17T00:01:55.381Z,17.09
2023-09-17T00:04:22.531Z,17.11
2023-09-17T00:06:49.511Z,17.09
2023-09-17T00:09:16.519Z,17.10
2023-09-17T00:11:43.601Z,17.10
2023-09-17T00:14:10.832Z,17.09
2023-09-17T00:16:40.074Z,17.08
2023-09-17T00:19:08.118Z,17.07
2023-09-17T00:21:35.145Z,17.04
2023-09-17T00:24:02.309Z,17.07
2023-09-17T00:26:29.259Z,17.05
2023-09-17T00:28:56.195Z,17.05
2023-09-17T00:31:23.382Z,17.03
2023-09-17T00:33:50.570Z,17.02
2023-09-17T00:36:17.583Z,17.03
2023-09-17T00:38:44.510Z,17.03
2023-09-17T00:41:11.529Z,17.01
2023-09-17T00:43:38.519Z,16.99
2023-09-17T00:46:06.213Z,16.98
2023-09-17T00:48:33.422Z,16.98
2023-09-17T00:51:00.778Z,16.97
2023-09-17T00:53:28.288Z,16.97
2023-09-17T00:55:56.128Z,16.97
2023-09-17T00:58:24.145Z,16.95
2023-09-17T01:00:52.098Z,16.93
2023-09-17T01:03:19.356Z,16.93
2023-09-17T01:05:47.291Z,16.93
2023-09-17T01:08:14.634Z,16.92
2023-09-17T01:10:42.085Z,16.90
2023-09-17T01:13:10.520Z,16.88
2023-09-17T01:15:38.189Z,16.89
2023-09-17T01:18:07.142Z,16.88
2023-09-17T01:20:42.621Z,16.88
2023-09-17T01:23:38.493Z,16.87
2023-09-17T01:26:14.884Z,16.87
2023-09-17T01:28:42.311Z,16.86
2023-09-17T01:31:10.753Z,16.86
2023-09-17T01:33:37.853Z,16.86
2023-09-17T01:36:10.431Z,16.84
2023-09-17T01:38:47.710Z,16.83
2023-09-17T01:41:17.093Z,16.79
2023-09-17T01:43:46.071Z,16.80
2023-09-17T01:46:13.512Z,16.80
2023-09-17T01:48:44.087Z,16.79
2023-09-17T01:51:12.972Z,16.79
2023-09-17T01:53:40.323Z,16.78
2023-09-17T01:56:07.304Z,16.79
2023-09-17T01:58:35.401Z,16.77
2023-09-17T02:01:02.678Z,16.76
2023-09-17T02:03:30.589Z,16.76
2023-09-17T02:05:57.971Z,16.74
2023-09-17T02:08:25.099Z,16.75
2023-09-17T02:10:52.151Z,16.73
2023-09-17T02:13:19.119Z,16.71
2023-09-17T02:15:46.760Z,16.71
2023-09-17T02:18:13.971Z,16.68
2023-09-17T02:20:41.535Z,16.68
2023-09-17T02:23:10.850Z,16.67
2023-09-17T02:25:37.872Z,16.67
2023-09-17T02:28:05.356Z,16.67
2023-09-17T02:30:32.573Z,16.66
2023-09-17T02:32:59.759Z,16.64
2023-09-17T02:35:26.866Z,16.63
2023-09-17T02:37:53.967Z,16.64
2023-09-17T02:40:22.653Z,16.64
2023-09-17T02:42:51.195Z,16.61
2023-09-17T02:45:20.309Z,16.62
2023-09-17T02:47:47.575Z,16.66
2023-09-17T02:50:14.653Z,16.64
2023-09-17T02:52:41.748Z,16.63
2023-09-17T02:55:09.931Z,16.63
2023-09-17T02:57:37.251Z,16.60
2023-09-17T03:00:10.673Z,16.58
2023-09-17T03:02:40.593Z,16.57
2023-09-17T03:05:12.193Z,16.57
2023-09-17T03:07:44.932Z,16.55
2023-09-17T03:10:13.236Z,16.56
2023-09-17T03:12:40.448Z,16.54
2023-09-17T03:15:08.455Z,16.54
2023-09-17T03:17:39.011Z,16.55
2023-09-17T03:20:15.575Z,16.56
2023-09-17T03:22:42.788Z,16.54
2023-09-17T03:25:10.074Z,16.51
2023-09-17T03:27:37.115Z,16.50
2023-09-17T03:30:07.531Z,16.47
2023-09-17T03:32:34.698Z,16.48
2023-09-17T03:35:02.625Z,16.48
2023-09-17T03:37:29.659Z,16.46
2023-09-17T03:40:26.239Z,16.46
2023-09-17T03:42:53.755Z,16.47
2023-09-17T03:45:21.157Z,16.45
2023-09-17T03:47:49.031Z,16.47
2023-09-17T03:50:21.577Z,16.46
2023-09-17T03:52:53.285Z,16.46
2023-09-17T03:55:21.383Z,16.46
2023-09-17T03:57:49.547Z,16.44
2023-09-17T04:00:17.356Z,16.47
2023-09-17T04:02:45.532Z,16.46
2023-09-17T04:05:15.239Z,16.46
2023-09-17T04:07:45.437Z,16.45
2023-09-17T04:10:13.614Z,16.45
2023-09-17T04:12:42.063Z,16.46
2023-09-17T04:15:29.398Z,16.42
2023-09-17T04:17:56.521Z,16.44
2023-09-17T04:20:25.545Z,16.43
2023-09-17T04:22:52.534Z,16.42
2023-09-17T04:25:21.937Z,16.40
2023-09-17T04:27:49.951Z,16.44
2023-09-17T04:30:18.240Z,16.44
2023-09-17T04:32:47.454Z,16.44
2023-09-17T04:35:19.200Z,16.44
2023-09-17T04:37:48.376Z,16.30
2023-09-17T04:40:15.761Z,16.33
2023-09-17T04:42:47.558Z,16.39
2023-09-17T04:45:49.467Z,16.39
2023-09-17T04:48:17.755Z,16.43
2023-09-17T04:50:48.085Z,16.46
2023-09-17T04:53:16.353Z,16.51
2023-09-17T04:55:43.382Z,16.53
2023-09-17T04:58:10.375Z,16.50
2023-09-17T05:00:38.421Z,16.57
2023-09-17T05:03:05.623Z,16.56
2023-09-17T05:05:32.718Z,16.58
2023-09-17T05:07:59.697Z,16.58
2023-09-17T05:10:27.486Z,16.61
2023-09-17T05:12:54.672Z,16.60
2023-09-17T05:15:22.707Z,16.58
2023-09-17T05:17:50.625Z,16.58
2023-09-17T05:20:19.797Z,16.60
2023-09-17T05:22:46.797Z,16.58
2023-09-17T05:25:13.815Z,16.58
2023-09-17T05:27:40.801Z,16.59
2023-09-17T05:30:08.355Z,16.60
2023-09-17T05:32:35.714Z,16.57
2023-09-17T05:35:04.788Z,16.56
2023-09-17T05:37:32.602Z,16.53
2023-09-17T05:40:00.194Z,16.50
2023-09-17T05:42:27.823Z,16.50
2023-09-17T05:44:54.835Z,16.51
2023-09-17T05:47:22.482Z,16.52
2023-09-17T05:49:49.600Z,16.53
2023-09-17T05:52:17.813Z,16.49
2023-09-17T05:54:44.803Z,16.48
2023-09-17T05:57:12.734Z,16.47
2023-09-17T05:59:39.813Z,16.46
2023-09-17T06:02:07.711Z,16.47
2023-09-17T06:04:34.676Z,16.46
2023-09-17T06:07:01.736Z,16.46
2023-09-17T06:09:28.883Z,16.46
2023-09-17T06:11:55.937Z,16.44
2023-09-17T06:14:23.039Z,16.47
2023-09-17T06:16:57.265Z,16.37
2023-09-17T06:19:24.912Z,16.34
2023-09-17T06:21:52.192Z,16.34
2023-09-17T06:24:19.199Z,16.37
2023-09-17T06:26:46.286Z,16.35
2023-09-17T06:29:13.445Z,16.36
2023-09-17T06:31:41.701Z,16.38
2023-09-17T06:34:09.392Z,16.38
2023-09-17T06:36:38.671Z,16.42
2023-09-17T06:39:08.232Z,16.42
2023-09-17T06:41:38.277Z,16.43
2023-09-17T06:44:06.188Z,16.43
2023-09-17T06:46:36.596Z,16.44
2023-09-17T06:49:04.032Z,16.45
2023-09-17T06:51:31.494Z,16.45
2023-09-17T06:53:59.199Z,16.45
2023-09-17T06:56:26.722Z,16.46
2023-09-17T06:58:54.343Z,16.46
2023-09-17T07:01:22.211Z,16.46
2023-09-17T07:03:49.982Z,16.50
2023-09-17T07:06:17.900Z,16.58
2023-09-17T07:08:45.239Z,16.59
2023-09-17T07:11:12.712Z,16.63
2023-09-17T07:13:41.349Z,16.60
2023-09-17T07:16:08.865Z,16.57
2023-09-17T07:18:36.019Z,16.55
2023-09-17T07:21:03.237Z,16.58
2023-09-17T07:23:31.382Z,16.63
2023-09-17T07:25:58.700Z,16.65
2023-09-17T07:28:27.440Z,16.65
2023-09-17T07:30:57.020Z,16.68
2023-09-17T07:33:24.873Z,16.71
2023-09-17T07:35:52.195Z,16.75
2023-09-17T07:38:19.529Z,16.76
2023-09-17T07:40:48.553Z,16.76
2023-09-17T07:43:15.671Z,16.80
2023-09-17T07:45:42.723Z,16.81
2023-09-17T07:48:09.875Z,16.83
2023-09-17T07:50:36.882Z,16.86
2023-09-17T07:53:03.972Z,16.86
2023-09-17T07:55:31.565Z,16.86
2023-09-17T07:57:58.864Z,16.86
2023-09-17T08:00:26.677Z,16.87
2023-09-17T08:02:53.869Z,16.90
2023-09-17T08:05:21.199Z,16.90
2023-09-17T08:07:48.517Z,16.91
2023-09-17T08:10:15.759Z,16.94
2023-09-17T08:12:42.854Z,16.93
2023-09-17T08:15:10.236Z,16.92
2023-09-17T08:17:38.328Z,16.94
2023-09-17T08:20:08.764Z,16.95
2023-09-17T08:22:35.930Z,16.98
2023-09-17T08:25:03.176Z,16.99
2023-09-17T08:27:30.123Z,16.97
2023-09-17T08:29:57.213Z,16.98
2023-09-17T08:32:24.162Z,16.96
2023-09-17T08:34:51.200Z,16.99
2023-09-17T08:37:19.019Z,16.98
2023-09-17T08:39:46.067Z,16.98
2023-09-17T08:42:14.241Z,16.98
2023-09-17T08:44:43.591Z,16.96
2023-09-17T08:47:10.581Z,16.95
2023-09-17T08:49:37.790Z,16.94
2023-09-17T08:52:08.221Z,16.95
2023-09-17T08:54:42.265Z,16.94
2023-09-17T08:57:12.120Z,16.93
2023-09-17T08:59:44.766Z,16.92
2023-09-17T09:02:24.946Z,16.90
2023-09-17T09:04:52.786Z,16.89
2023-09-17T09:07:23.786Z,16.90
2023-09-17T09:09:52.993Z,16.88
2023-09-17T09:12:20.564Z,16.90
2023-09-17T09:14:48.744Z,16.91
2023-09-17T09:17:15.938Z,16.92
2023-09-17T09:19:43.162Z,16.93
2023-09-17T09:22:10.606Z,16.98
2023-09-17T09:24:48.616Z,17.03
2023-09-17T09:27:15.973Z,17.03
2023-09-17T09:29:45.990Z,17.00
2023-09-17T09:32:14.687Z,16.94
2023-09-17T09:34:43.632Z,16.90
2023-09-17T09:37:11.413Z,16.90
2023-09-17T09:39:39.263Z,16.88
2023-09-17T09:42:07.322Z,16.85
2023-09-17T09:44:36.461Z,16.86
2023-09-17T09:47:04.469Z,16.86
2023-09-17T09:49:41.291Z,16.87
2023-09-17T09:52:08.662Z,16.92
2023-09-17T09:54:39.287Z,16.94
2023-09-17T09:57:06.713Z,16.93
2023-09-17T09:59:38.208Z,16.98
2023-09-17T10:02:06.575Z,16.98
2023-09-17T10:04:39.351Z,17.07
2023-09-17T10:07:07.100Z,17.12
2023-09-17T10:09:34.858Z,17.15
2023-09-17T10:12:01.948Z,17.18
2023-09-17T10:14:29.180Z,17.28
2023-09-17T10:16:57.202Z,17.31
2023-09-17T10:19:27.427Z,17.36
2023-09-17T10:21:57.374Z,17.37
2023-09-17T10:24:25.333Z,17.39
2023-09-17T10:26:53.164Z,17.29
2023-09-17T10:29:22.764Z,17.27
2023-09-17T10:31:50.574Z,17.25
2023-09-17T10:34:19.652Z,17.16
2023-09-17T10:36:49.116Z,17.14
2023-09-17T10:39:16.630Z,17.06
2023-09-17T10:41:46.492Z,17.05
2023-09-17T10:44:16.446Z,17.04
2023-09-17T10:46:47.030Z,17.04
2023-09-17T10:49:15.020Z,17.03
2023-09-17T10:51:45.589Z,17.01
2023-09-17T10:54:12.949Z,17.03
2023-09-17T10:56:43.225Z,17.02
2023-09-17T10:59:14.947Z,17.02
2023-09-17T11:01:44.647Z,17.01
2023-09-17T11:04:17.682Z,17.02
2023-09-17T11:06:48.226Z,17.07
2023-09-17T11:09:16.751Z,17.05
2023-09-17T11:11:45.200Z,17.02
2023-09-17T11:14:14.048Z,17.04
2023-09-17T11:16:41.609Z,17.01
2023-09-17T11:19:14.939Z,17.02
2023-09-17T11:21:49.219Z,17.31
2023-09-17T11:24:19.514Z,17.37
2023-09-17T11:26:47.714Z,17.34
2023-09-17T11:29:16.279Z,17.39
2023-09-17T11:31:55.902Z,17.55
2023-09-17T11:34:23.285Z,17.22
2023-09-17T11:36:52.013Z,17.02
2023-09-17T11:39:22.075Z,16.90
2023-09-17T11:42:04.508Z,16.82
2023-09-17T11:44:35.538Z,16.82
2023-09-17T11:47:02.972Z,16.78
2023-09-17T11:49:30.513Z,16.62
2023-09-17T11:51:58.875Z,16.61
2023-09-17T11:54:32.504Z,16.65
2023-09-17T11:56:59.700Z,16.70
2023-09-17T11:59:28.472Z,16.73
2023-09-17T12:01:59.086Z,16.75
2023-09-17T12:04:29.359Z,16.76
2023-09-17T12:07:00.038Z,16.77
2023-09-17T12:09:41.315Z,16.78
2023-09-17T12:12:08.859Z,16.98
2023-09-17T12:14:37.602Z,17.06
2023-09-17T12:17:05.506Z,17.06
2023-09-17T12:19:33.104Z,16.98
2023-09-17T12:22:01.491Z,16.78
2023-09-17T12:24:36.159Z,16.79
2023-09-17T12:27:10.064Z,16.82
2023-09-17T12:29:38.918Z,16.84
2023-09-17T12:32:06.893Z,16.86
2023-09-17T12:34:37.836Z,16.86
2023-09-17T12:37:11.128Z,16.87
2023-09-17T12:39:38.758Z,16.86
2023-09-17T12:42:05.821Z,16.86
2023-09-17T12:44:33.578Z,16.86
2023-09-17T12:47:00.894Z,16.85
2023-09-17T12:49:28.531Z,16.86
2023-09-17T12:51:55.868Z,16.85
2023-09-17T12:54:24.495Z,16.88
2023-09-17T12:56:52.456Z,16.97
2023-09-17T12:59:36.184Z,17.12
2023-09-17T13:02:05.337Z,16.95
2023-09-17T13:04:44.662Z,16.85
2023-09-17T13:07:25.005Z,16.82
2023-09-17T13:09:57.141Z,16.81
2023-09-17T13:12:25.724Z,16.80
2023-09-17T13:14:53.737Z,16.82
2023-09-17T13:17:27.273Z,16.89
2023-09-17T13:19:55.603Z,16.89
2023-09-17T13:22:23.987Z,16.90
2023-09-17T13:24:51.319Z,16.89
2023-09-17T13:27:20.173Z,16.92
2023-09-17T13:29:55.593Z,16.98
2023-09-17T13:32:23.160Z,16.97
2023-09-17T13:34:51.352Z,17.03
2023-09-17T13:37:20.073Z,17.07
2023-09-17T13:39:51.179Z,17.05
2023-09-17T13:42:18.534Z,17.03
2023-09-17T13:44:46.145Z,17.01
2023-09-17T13:47:13.600Z,17.00
2023-09-17T13:49:43.020Z,17.00
2023-09-17T13:52:11.366Z,17.01
2023-09-17T13:54:40.577Z,17.03
2023-09-17T13:57:08.150Z,17.11
2023-09-17T13:59:35.515Z,17.14
2023-09-17T14:02:05.748Z,17.11
2023-09-17T14:04:34.753Z,17.09
2023-09-17T14:07:02.703Z,17.09
2023-09-17T14:09:30.243Z,17.11
2023-09-17T14:11:57.301Z,17.10
2023-09-17T14:14:25.281Z,17.10
2023-09-17T14:16:52.574Z,17.08
2023-09-17T14:19:20.399Z,17.10
2023-09-17T14:21:48.945Z,17.09
2023-09-17T14:24:16.479Z,17.12
2023-09-17T14:26:44.511Z,17.12
2023-09-17T14:29:11.594Z,17.12
2023-09-17T14:31:40.918Z,17.12
2023-09-17T14:34:10.849Z,17.11
2023-09-17T14:36:38.793Z,17.10
2023-09-17T14:39:06.464Z,17.13
2023-09-17T14:41:33.683Z,17.18
2023-09-17T14:44:00.781Z,17.20
2023-09-17T14:46:30.789Z,17.15
2023-09-17T14:48:57.870Z,17.13
2023-09-17T14:51:24.983Z,17.14
2023-09-17T14:53:52.138Z,17.13
2023-09-17T14:56:19.568Z,17.13
2023-09-17T14:58:47.280Z,17.14
2023-09-17T15:01:26.756Z,17.13
2023-09-17T15:04:02.329Z,17.13
2023-09-17T15:06:31.171Z,17.12
2023-09-17T15:08:58.831Z,17.14
2023-09-17T15:11:26.292Z,17.18
2023-09-17T15:13:53.983Z,17.15
2023-09-17T15:16:22.202Z,17.12
2023-09-17T15:18:52.339Z,17.11
2023-09-17T15:21:19.976Z,17.09
2023-09-17T15:23:47.093Z,17.10
2023-09-17T15:26:14.169Z,17.08
2023-09-17T15:28:44.849Z,17.05
2023-09-17T15:31:12.165Z,17.04
2023-09-17T15:33:40.572Z,17.05
2023-09-17T15:36:08.548Z,17.04
2023-09-17T15:38:35.724Z,17.07
2023-09-17T15:41:04.973Z,17.09
2023-09-17T15:43:36.845Z,17.12
2023-09-17T15:46:07.152Z,17.12
2023-09-17T15:48:36.156Z,17.12
2023-09-17T15:51:05.194Z,17.12
2023-09-17T15:53:33.504Z,17.14
2023-09-17T15:56:01.107Z,17.14
2023-09-17T15:58:28.185Z,17.14
2023-09-17T16:00:56.555Z,17.15
2023-09-17T16:03:23.726Z,17.15
2023-09-17T16:05:51.551Z,17.11
2023-09-17T16:08:18.844Z,17.09
2023-09-17T16:10:46.149Z,17.11
2023-09-17T16:13:14.330Z,17.20
2023-09-17T16:15:43.420Z,17.18
2023-09-17T16:18:10.638Z,17.15
2023-09-17T16:20:38.443Z,17.14
2023-09-17T16:23:05.641Z,17.12
2023-09-17T16:25:34.104Z,17.14
2023-09-17T16:28:03.126Z,17.12
2023-09-17T16:30:30.547Z,17.14
2023-09-17T16:32:58.491Z,17.16
2023-09-17T16:35:25.848Z,17.15
2023-09-17T16:37:54.763Z,17.14
2023-09-17T16:40:22.821Z,17.15
2023-09-17T16:43:05.734Z,17.11
2023-09-17T16:45:38.234Z,17.17
2023-09-17T16:48:06.250Z,17.21
2023-09-17T16:50:33.945Z,17.21
2023-09-17T16:53:01.359Z,17.22
2023-09-17T16:55:29.381Z,17.21
2023-09-17T16:57:56.728Z,17.23
2023-09-17T17:00:25.715Z,17.26
2023-09-17T17:02:53.260Z,17.28
2023-09-17T17:05:21.100Z,17.28
2023-09-17T17:07:48.755Z,17.30
2023-09-17T17:10:16.427Z,17.33
2023-09-17T17:12:43.981Z,17.35
2023-09-17T17:15:12.244Z,17.32
2023-09-17T17:17:39.926Z,17.34
2023-09-17T17:20:08.451Z,17.34
2023-09-17T17:22:49.908Z,17.35
2023-09-17T17:25:21.121Z,17.33
2023-09-17T17:27:50.000Z,17.34
2023-09-17T17:30:17.368Z,17.33
2023-09-17T17:32:46.677Z,17.34
2023-09-17T17:35:16.249Z,17.35
2023-09-17T17:37:45.317Z,17.39
2023-09-17T17:40:12.664Z,17.42
2023-09-17T17:42:39.926Z,17.42
2023-09-17T17:45:08.255Z,17.40
2023-09-17T17:47:35.568Z,17.41
2023-09-17T17:50:02.985Z,17.41
2023-09-17T17:52:30.328Z,17.41
2023-09-17T17:54:58.597Z,17.41
2023-09-17T17:57:26.013Z,17.43
2023-09-17T17:59:53.189Z,17.46
2023-09-17T18:02:20.436Z,17.48
2023-09-17T18:04:50.533Z,17.47
2023-09-17T18:07:17.906Z,17.48
2023-09-17T18:09:46.361Z,17.51
2023-09-17T18:12:14.492Z,17.54
2023-09-17T18:14:42.468Z,17.56
2023-09-17T18:17:10.008Z,17.59
2023-09-17T18:19:37.546Z,17.63
2023-09-17T18:22:05.495Z,17.64
2023-09-17T18:24:33.023Z,17.70
2023-09-17T18:27:00.377Z,17.72
2023-09-17T18:29:32.035Z,17.72
2023-09-17T18:31:59.727Z,17.72
2023-09-17T18:34:29.058Z,17.75
2023-09-17T18:36:57.953Z,17.77
2023-09-17T18:39:26.579Z,17.80
2023-09-17T18:41:54.513Z,17.83
2023-09-17T18:44:22.073Z,17.85
2023-09-17T18:46:56.769Z,17.87
2023-09-17T18:49:34.866Z,17.89
2023-09-17T18:52:06.298Z,17.93
2023-09-17T18:54:40.114Z,17.93
2023-09-17T18:57:10.000Z,17.94
2023-09-17T18:59:38.632Z,17.94
2023-09-17T19:02:06.629Z,17.95
2023-09-17T19:04:36.839Z,17.98
2023-09-17T19:07:04.643Z,18.00
2023-09-17T19:09:33.509Z,17.98
2023-09-17T19:12:05.546Z,18.01
2023-09-17T19:14:37.165Z,17.94
2023-09-17T19:17:09.331Z,17.83
2023-09-17T19:19:37.374Z,17.78
2023-09-17T19:22:10.770Z,17.81
2023-09-17T19:24:38.741Z,17.85
2023-09-17T19:27:07.370Z,17.87
2023-09-17T19:29:36.040Z,17.84
2023-09-17T19:32:05.469Z,17.86
2023-09-17T19:34:35.187Z,17.86
2023-09-17T19:37:03.257Z,17.86
2023-09-17T19:39:40.652Z,17.86
2023-09-17T19:42:12.755Z,17.86
2023-09-17T19:44:42.154Z,17.86
2023-09-17T19:47:11.759Z,17.86
2023-09-17T19:49:40.993Z,17.87
2023-09-17T19:52:08.654Z,17.87
2023-09-17T19:54:36.468Z,17.86
2023-09-17T19:57:06.143Z,17.85
2023-09-17T19:59:34.620Z,17.84
2023-09-17T20:02:02.990Z,17.89
2023-09-17T20:04:32.851Z,17.91
2023-09-17T20:07:02.452Z,17.85
2023-09-17T20:09:32.667Z,17.86
2023-09-17T20:12:01.255Z,17.84
2023-09-17T20:14:29.485Z,17.86
2023-09-17T20:16:57.583Z,17.84
2023-09-17T20:19:25.415Z,17.82
2023-09-17T20:21:53.303Z,17.83
2023-09-17T20:24:22.196Z,17.80
2023-09-17T20:26:49.383Z,17.81
2023-09-17T20:29:16.757Z,17.84
2023-09-17T20:31:44.194Z,17.87
2023-09-17T20:34:16.333Z,17.86
2023-09-17T20:36:44.619Z,17.88
2023-09-17T20:39:16.004Z,17.87
2023-09-17T20:41:46.937Z,17.88
2023-09-17T20:44:14.490Z,17.87
2023-09-17T20:46:42.286Z,17.85
2023-09-17T20:49:11.059Z,17.88
2023-09-17T20:51:38.534Z,17.88
2023-09-17T20:54:07.947Z,17.85
2023-09-17T20:56:36.008Z,17.80
2023-09-17T20:59:03.630Z,17.76
2023-09-17T21:01:31.016Z,17.73
2023-09-17T21:03:58.487Z,17.73
2023-09-17T21:06:26.262Z,17.73
2023-09-17T21:08:54.050Z,17.77
2023-09-17T21:11:21.615Z,17.76
2023-09-17T21:13:49.077Z,17.77
2023-09-17T21:16:17.857Z,17.76
2023-09-17T21:18:53.489Z,17.67
2023-09-17T21:21:35.779Z,17.59
2023-09-17T21:24:12.995Z,17.53
2023-09-17T21:26:42.654Z,17.51
2023-09-17T21:29:13.299Z,17.50
2023-09-17T21:31:44.176Z,17.45
2023-09-17T21:34:15.992Z,17.42
2023-09-17T21:36:45.149Z,17.41
2023-09-17T21:39:14.559Z,17.39
2023-09-17T21:41:43.662Z,17.36
2023-09-17T21:44:11.599Z,17.34
2023-09-17T21:46:39.103Z,17.34
2023-09-17T21:49:06.605Z,17.33
2023-09-17T21:51:34.714Z,17.29
2023-09-17T21:54:02.832Z,17.29
2023-09-17T21:56:30.567Z,17.26
2023-09-17T21:58:58.027Z,17.24
2023-09-17T22:01:28.239Z,17.24
2023-09-17T22:03:56.625Z,17.22
2023-09-17T22:06:26.834Z,17.20
2023-09-17T22:08:54.816Z,17.20
2023-09-17T22:11:23.967Z,17.19
2023-09-17T22:13:51.383Z,17.19
2023-09-17T22:16:18.665Z,17.17
2023-09-17T22:18:46.957Z,17.15
2023-09-17T22:21:14.494Z,17.11
2023-09-17T22:23:42.001Z,17.12
2023-09-17T22:26:10.418Z,17.10
2023-09-17T22:28:42.429Z,17.09
2023-09-17T22:31:17.285Z,17.09
2023-09-17T22:33:46.283Z,17.05
2023-09-17T22:36:14.194Z,17.08
2023-09-17T22:38:43.987Z,17.06
2023-09-17T22:41:19.873Z,17.05
2023-09-17T22:43:49.944Z,17.06
2023-09-17T22:46:18.335Z,17.04
2023-09-17T22:48:56.123Z,17.03
2023-09-17T22:51:24.796Z,17.05
2023-09-17T22:53:54.844Z,17.02
2023-09-17T22:56:22.156Z,17.03
2023-09-17T22:58:49.637Z,17.02
2023-09-17T23:01:21.289Z,17.02
2023-09-17T23:03:48.640Z,17.01
2023-09-17T23:06:15.642Z,16.99
2023-09-17T23:08:43.427Z,16.99
2023-09-17T23:11:11.024Z,16.97
2023-09-17T23:13:38.037Z,16.94
2023-09-17T23:16:05.778Z,16.96
2023-09-17T23:18:34.183Z,16.96
2023-09-17T23:21:05.186Z,16.94
2023-09-17T23:23:32.853Z,16.94
2023-09-17T23:26:02.873Z,16.93
2023-09-17T23:28:34.618Z,16.92
2023-09-17T23:31:07.915Z,16.91
2023-09-17T23:33:35.228Z,16.91
2023-09-17T23:36:05.577Z,16.91
2023-09-17T23:38:32.742Z,16.91
2023-09-17T23:40:59.941Z,16.90
2023-09-17T23:43:27.168Z,16.89
2023-09-17T23:45:54.258Z,16.88
2023-09-17T23:48:21.324Z,16.88
2023-09-17T23:50:51.941Z,16.87
2023-09-17T23:53:19.069Z,16.87
2023-09-17T23:55:49.690Z,16.87
2023-09-17T23:58:18.277Z,16.86
